sensor_id;sensor_type;location;lat;lon;timestamp;P1;durP1;ratioP1;P2;durP2;ratioP2
21198;SDS011;10757;51.038;3.712;2022-07-09T00:01:14;13.90;;;8.23;;
21198;SDS011;10757;51.038;3.712;2022-07-09T00:03:39;17.05;;;8.00;;
21198;SDS011;10757;51.038;3.712;2022-07-09T00:06:05;18.33;;;8.35;;
21198;SDS011;10757;51.038;3.712;2022-07-09T00:08:31;17.60;;;8.57;;
21198;SDS011;10757;51.038;3.712;2022-07-09T00:10:58;13.05;;;8.65;;
21198;SDS011;10757;51.038;3.712;2022-07-09T00:13:24;17.13;;;8.68;;
21198;SDS011;10757;51.038;3.712;2022-07-09T00:15:50;14.38;;;8.75;;
21198;SDS011;10757;51.038;3.712;2022-07-09T00:18:17;15.48;;;9.25;;
21198;SDS011;10757;51.038;3.712;2022-07-09T00:20:43;20.15;;;9.95;;
21198;SDS011;10757;51.038;3.712;2022-07-09T00:23:11;18.77;;;11.15;;
21198;SDS011;10757;51.038;3.712;2022-07-09T00:25:36;17.52;;;10.50;;
21198;SDS011;10757;51.038;3.712;2022-07-09T00:28:02;17.73;;;12.05;;
21198;SDS011;10757;51.038;3.712;2022-07-09T00:30:29;16.05;;;10.90;;
21198;SDS011;10757;51.038;3.712;2022-07-09T00:32:55;22.52;;;13.25;;
21198;SDS011;10757;51.038;3.712;2022-07-09T00:35:21;20.75;;;14.15;;
21198;SDS011;10757;51.038;3.712;2022-07-09T00:37:46;23.42;;;15.00;;
21198;SDS011;10757;51.038;3.712;2022-07-09T00:40:12;26.65;;;15.88;;
21198;SDS011;10757;51.038;3.712;2022-07-09T00:42:38;21.17;;;16.10;;
21198;SDS011;10757;51.038;3.712;2022-07-09T00:45:03;25.58;;;17.23;;
21198;SDS011;10757;51.038;3.712;2022-07-09T00:47:29;22.92;;;16.42;;
21198;SDS011;10757;51.038;3.712;2022-07-09T00:49:55;24.05;;;18.77;;
21198;SDS011;10757;51.038;3.712;2022-07-09T00:52:21;25.27;;;20.10;;
21198;SDS011;10757;51.038;3.712;2022-07-09T00:54:48;31.42;;;19.90;;
21198;SDS011;10757;51.038;3.712;2022-07-09T00:57:14;23.65;;;20.00;;
21198;SDS011;10757;51.038;3.712;2022-07-09T00:59:41;24.02;;;19.73;;
21198;SDS011;10757;51.038;3.712;2022-07-09T01:02:08;29.45;;;20.27;;
21198;SDS011;10757;51.038;3.712;2022-07-09T01:04:34;25.42;;;19.05;;
21198;SDS011;10757;51.038;3.712;2022-07-09T01:07:00;26.42;;;19.67;;
21198;SDS011;10757;51.038;3.712;2022-07-09T01:09:26;23.38;;;18.42;;
21198;SDS011;10757;51.038;3.712;2022-07-09T01:11:55;25.80;;;18.92;;
21198;SDS011;10757;51.038;3.712;2022-07-09T01:14:21;25.48;;;19.08;;
21198;SDS011;10757;51.038;3.712;2022-07-09T01:16:56;23.77;;;21.05;;
21198;SDS011;10757;51.038;3.712;2022-07-09T01:19:23;26.50;;;21.60;;
21198;SDS011;10757;51.038;3.712;2022-07-09T01:21:50;31.27;;;22.38;;
21198;SDS011;10757;51.038;3.712;2022-07-09T01:24:15;31.45;;;21.20;;
21198;SDS011;10757;51.038;3.712;2022-07-09T01:26:41;26.63;;;21.42;;
21198;SDS011;10757;51.038;3.712;2022-07-09T01:29:08;33.22;;;21.13;;
21198;SDS011;10757;51.038;3.712;2022-07-09T01:31:35;33.20;;;23.00;;
21198;SDS011;10757;51.038;3.712;2022-07-09T01:34:00;27.33;;;21.95;;
21198;SDS011;10757;51.038;3.712;2022-07-09T01:36:26;33.72;;;22.45;;
21198;SDS011;10757;51.038;3.712;2022-07-09T01:38:51;29.45;;;22.60;;
21198;SDS011;10757;51.038;3.712;2022-07-09T01:41:17;33.00;;;24.10;;
21198;SDS011;10757;51.038;3.712;2022-07-09T01:43:43;31.92;;;24.05;;
21198;SDS011;10757;51.038;3.712;2022-07-09T01:46:09;32.17;;;24.20;;
21198;SDS011;10757;51.038;3.712;2022-07-09T01:48:34;31.45;;;24.83;;
21198;SDS011;10757;51.038;3.712;2022-07-09T01:51:01;33.97;;;25.33;;
21198;SDS011;10757;51.038;3.712;2022-07-09T01:53:27;37.53;;;26.63;;
21198;SDS011;10757;51.038;3.712;2022-07-09T01:55:53;34.75;;;25.42;;
21198;SDS011;10757;51.038;3.712;2022-07-09T01:58:18;29.77;;;25.27;;
21198;SDS011;10757;51.038;3.712;2022-07-09T02:00:44;34.50;;;23.92;;
21198;SDS011;10757;51.038;3.712;2022-07-09T02:03:10;31.65;;;24.02;;
21198;SDS011;10757;51.038;3.712;2022-07-09T02:05:36;30.35;;;24.23;;
21198;SDS011;10757;51.038;3.712;2022-07-09T02:08:02;34.65;;;24.75;;
21198;SDS011;10757;51.038;3.712;2022-07-09T02:10:28;38.30;;;26.30;;
21198;SDS011;10757;51.038;3.712;2022-07-09T02:15:22;29.88;;;24.38;;
21198;SDS011;10757;51.038;3.712;2022-07-09T02:17:48;37.03;;;25.48;;
21198;SDS011;10757;51.038;3.712;2022-07-09T02:20:14;34.17;;;25.67;;
21198;SDS011;10757;51.038;3.712;2022-07-09T02:22:39;31.08;;;25.30;;
21198;SDS011;10757;51.038;3.712;2022-07-09T02:25:05;27.40;;;23.65;;
21198;SDS011;10757;51.038;3.712;2022-07-09T02:30:00;30.55;;;24.20;;
21198;SDS011;10757;51.038;3.712;2022-07-09T02:32:26;32.22;;;22.83;;
21198;SDS011;10757;51.038;3.712;2022-07-09T02:34:51;30.00;;;22.50;;
21198;SDS011;10757;51.038;3.712;2022-07-09T02:37:17;33.72;;;22.45;;
21198;SDS011;10757;51.038;3.712;2022-07-09T02:39:43;27.48;;;22.85;;
21198;SDS011;10757;51.038;3.712;2022-07-09T02:42:09;26.65;;;21.80;;
21198;SDS011;10757;51.038;3.712;2022-07-09T02:44:36;31.65;;;19.58;;
21198;SDS011;10757;51.038;3.712;2022-07-09T02:47:02;24.25;;;18.65;;
21198;SDS011;10757;51.038;3.712;2022-07-09T02:49:28;29.13;;;19.92;;
21198;SDS011;10757;51.038;3.712;2022-07-09T02:51:54;29.85;;;18.95;;
21198;SDS011;10757;51.038;3.712;2022-07-09T02:54:22;23.17;;;19.48;;
21198;SDS011;10757;51.038;3.712;2022-07-09T02:56:48;24.80;;;18.48;;
21198;SDS011;10757;51.038;3.712;2022-07-09T02:59:14;24.52;;;18.77;;
21198;SDS011;10757;51.038;3.712;2022-07-09T03:01:39;29.55;;;18.25;;
21198;SDS011;10757;51.038;3.712;2022-07-09T03:04:05;21.55;;;17.80;;
21198;SDS011;10757;51.038;3.712;2022-07-09T03:06:31;23.83;;;17.98;;
21198;SDS011;10757;51.038;3.712;2022-07-09T03:08:56;20.10;;;16.48;;
21198;SDS011;10757;51.038;3.712;2022-07-09T03:11:22;21.45;;;16.65;;
21198;SDS011;10757;51.038;3.712;2022-07-09T03:13:48;17.98;;;15.25;;
21198;SDS011;10757;51.038;3.712;2022-07-09T03:16:13;22.33;;;16.27;;
21198;SDS011;10757;51.038;3.712;2022-07-09T03:18:39;18.63;;;15.85;;
21198;SDS011;10757;51.038;3.712;2022-07-09T03:21:05;20.73;;;16.20;;
21198;SDS011;10757;51.038;3.712;2022-07-09T03:23:33;19.55;;;15.00;;
21198;SDS011;10757;51.038;3.712;2022-07-09T03:25:58;26.40;;;15.95;;
21198;SDS011;10757;51.038;3.712;2022-07-09T03:28:24;17.02;;;12.98;;
21198;SDS011;10757;51.038;3.712;2022-07-09T03:30:50;16.90;;;13.38;;
21198;SDS011;10757;51.038;3.712;2022-07-09T03:33:16;18.60;;;13.68;;
21198;SDS011;10757;51.038;3.712;2022-07-09T03:35:42;19.77;;;14.45;;
21198;SDS011;10757;51.038;3.712;2022-07-09T03:38:08;16.90;;;13.10;;
21198;SDS011;10757;51.038;3.712;2022-07-09T03:40:34;20.00;;;14.00;;
21198;SDS011;10757;51.038;3.712;2022-07-09T03:43:00;18.30;;;14.38;;
21198;SDS011;10757;51.038;3.712;2022-07-09T03:45:25;21.90;;;14.85;;
21198;SDS011;10757;51.038;3.712;2022-07-09T03:47:51;19.17;;;15.07;;
21198;SDS011;10757;51.038;3.712;2022-07-09T03:50:17;17.95;;;15.10;;
21198;SDS011;10757;51.038;3.712;2022-07-09T03:52:42;23.02;;;15.75;;
21198;SDS011;10757;51.038;3.712;2022-07-09T03:55:08;22.80;;;15.90;;
21198;SDS011;10757;51.038;3.712;2022-07-09T03:57:34;21.05;;;15.90;;
21198;SDS011;10757;51.038;3.712;2022-07-09T04:00:00;22.35;;;17.65;;
21198;SDS011;10757;51.038;3.712;2022-07-09T04:02:26;23.73;;;17.38;;
21198;SDS011;10757;51.038;3.712;2022-07-09T04:04:52;26.77;;;17.83;;
21198;SDS011;10757;51.038;3.712;2022-07-09T04:07:21;24.42;;;18.70;;
21198;SDS011;10757;51.038;3.712;2022-07-09T04:09:47;23.60;;;18.83;;
21198;SDS011;10757;51.038;3.712;2022-07-09T04:12:13;23.75;;;21.00;;
21198;SDS011;10757;51.038;3.712;2022-07-09T04:14:38;27.83;;;21.17;;
21198;SDS011;10757;51.038;3.712;2022-07-09T04:17:04;25.70;;;20.15;;
21198;SDS011;10757;51.038;3.712;2022-07-09T04:19:31;28.65;;;19.50;;
21198;SDS011;10757;51.038;3.712;2022-07-09T04:21:56;26.15;;;21.23;;
21198;SDS011;10757;51.038;3.712;2022-07-09T04:24:22;25.27;;;22.65;;
21198;SDS011;10757;51.038;3.712;2022-07-09T04:26:48;27.65;;;21.77;;
21198;SDS011;10757;51.038;3.712;2022-07-09T04:29:13;33.55;;;22.40;;
21198;SDS011;10757;51.038;3.712;2022-07-09T04:31:39;31.20;;;21.83;;
21198;SDS011;10757;51.038;3.712;2022-07-09T04:34:05;27.23;;;22.98;;
21198;SDS011;10757;51.038;3.712;2022-07-09T04:36:31;28.63;;;23.02;;
21198;SDS011;10757;51.038;3.712;2022-07-09T04:38:56;33.58;;;24.13;;
21198;SDS011;10757;51.038;3.712;2022-07-09T04:41:23;30.58;;;23.23;;
21198;SDS011;10757;51.038;3.712;2022-07-09T04:43:48;26.48;;;21.85;;
21198;SDS011;10757;51.038;3.712;2022-07-09T04:46:14;27.88;;;21.63;;
21198;SDS011;10757;51.038;3.712;2022-07-09T04:48:41;27.13;;;23.48;;
21198;SDS011;10757;51.038;3.712;2022-07-09T04:51:07;25.48;;;22.35;;
21198;SDS011;10757;51.038;3.712;2022-07-09T04:53:32;29.33;;;23.45;;
21198;SDS011;10757;51.038;3.712;2022-07-09T04:55:58;30.52;;;21.90;;
21198;SDS011;10757;51.038;3.712;2022-07-09T04:58:24;26.35;;;20.05;;
21198;SDS011;10757;51.038;3.712;2022-07-09T05:00:49;22.88;;;20.08;;
21198;SDS011;10757;51.038;3.712;2022-07-09T05:03:15;27.70;;;20.67;;
21198;SDS011;10757;51.038;3.712;2022-07-09T05:05:41;23.13;;;19.13;;
21198;SDS011;10757;51.038;3.712;2022-07-09T05:08:06;34.28;;;21.13;;
21198;SDS011;10757;51.038;3.712;2022-07-09T05:10:32;24.58;;;19.75;;
21198;SDS011;10757;51.038;3.712;2022-07-09T05:12:59;23.10;;;19.48;;
21198;SDS011;10757;51.038;3.712;2022-07-09T05:15:26;24.00;;;19.20;;
21198;SDS011;10757;51.038;3.712;2022-07-09T05:17:52;23.30;;;17.63;;
21198;SDS011;10757;51.038;3.712;2022-07-09T05:20:18;20.55;;;16.98;;
21198;SDS011;10757;51.038;3.712;2022-07-09T05:22:43;21.80;;;16.08;;
21198;SDS011;10757;51.038;3.712;2022-07-09T05:25:09;22.58;;;16.23;;
21198;SDS011;10757;51.038;3.712;2022-07-09T05:27:42;23.45;;;15.95;;
21198;SDS011;10757;51.038;3.712;2022-07-09T05:30:09;22.30;;;16.25;;
21198;SDS011;10757;51.038;3.712;2022-07-09T05:32:38;20.85;;;15.70;;
21198;SDS011;10757;51.038;3.712;2022-07-09T05:35:04;23.73;;;16.00;;
21198;SDS011;10757;51.038;3.712;2022-07-09T05:37:30;19.88;;;16.10;;
21198;SDS011;10757;51.038;3.712;2022-07-09T05:39:58;20.13;;;15.77;;
21198;SDS011;10757;51.038;3.712;2022-07-09T05:42:26;18.40;;;15.15;;
21198;SDS011;10757;51.038;3.712;2022-07-09T05:44:52;21.00;;;16.15;;
21198;SDS011;10757;51.038;3.712;2022-07-09T05:47:17;25.23;;;17.05;;
21198;SDS011;10757;51.038;3.712;2022-07-09T05:49:44;24.20;;;16.27;;
21198;SDS011;10757;51.038;3.712;2022-07-09T05:52:10;18.92;;;15.52;;
21198;SDS011;10757;51.038;3.712;2022-07-09T05:54:35;17.85;;;14.90;;
21198;SDS011;10757;51.038;3.712;2022-07-09T05:57:01;20.02;;;15.00;;
21198;SDS011;10757;51.038;3.712;2022-07-09T05:59:27;18.83;;;15.43;;
21198;SDS011;10757;51.038;3.712;2022-07-09T06:01:53;20.42;;;16.52;;
21198;SDS011;10757;51.038;3.712;2022-07-09T06:04:19;20.88;;;16.10;;
21198;SDS011;10757;51.038;3.712;2022-07-09T06:06:44;17.73;;;14.77;;
21198;SDS011;10757;51.038;3.712;2022-07-09T06:09:10;23.55;;;15.43;;
21198;SDS011;10757;51.038;3.712;2022-07-09T06:11:36;21.52;;;15.52;;
21198;SDS011;10757;51.038;3.712;2022-07-09T06:14:01;20.17;;;16.20;;
21198;SDS011;10757;51.038;3.712;2022-07-09T06:16:27;19.27;;;15.85;;
21198;SDS011;10757;51.038;3.712;2022-07-09T06:18:53;20.73;;;15.38;;
21198;SDS011;10757;51.038;3.712;2022-07-09T06:21:20;22.13;;;16.42;;
21198;SDS011;10757;51.038;3.712;2022-07-09T06:23:45;19.58;;;17.25;;
21198;SDS011;10757;51.038;3.712;2022-07-09T06:26:11;25.60;;;17.48;;
21198;SDS011;10757;51.038;3.712;2022-07-09T06:28:37;20.77;;;17.55;;
21198;SDS011;10757;51.038;3.712;2022-07-09T06:31:03;22.25;;;18.48;;
21198;SDS011;10757;51.038;3.712;2022-07-09T06:33:29;21.55;;;17.50;;
21198;SDS011;10757;51.038;3.712;2022-07-09T06:35:54;24.42;;;19.52;;
21198;SDS011;10757;51.038;3.712;2022-07-09T06:38:20;29.05;;;19.27;;
21198;SDS011;10757;51.038;3.712;2022-07-09T06:40:46;23.40;;;19.25;;
21198;SDS011;10757;51.038;3.712;2022-07-09T06:43:12;31.15;;;20.58;;
21198;SDS011;10757;51.038;3.712;2022-07-09T06:45:37;25.80;;;21.98;;
21198;SDS011;10757;51.038;3.712;2022-07-09T06:48:03;29.70;;;23.65;;
21198;SDS011;10757;51.038;3.712;2022-07-09T06:50:29;29.92;;;24.48;;
21198;SDS011;10757;51.038;3.712;2022-07-09T06:52:56;31.77;;;24.65;;
21198;SDS011;10757;51.038;3.712;2022-07-09T06:55:22;28.95;;;25.23;;
21198;SDS011;10757;51.038;3.712;2022-07-09T06:57:47;30.02;;;23.90;;
21198;SDS011;10757;51.038;3.712;2022-07-09T07:00:13;32.22;;;23.85;;
21198;SDS011;10757;51.038;3.712;2022-07-09T07:02:39;34.58;;;26.13;;
21198;SDS011;10757;51.038;3.712;2022-07-09T07:05:05;35.55;;;27.10;;
21198;SDS011;10757;51.038;3.712;2022-07-09T07:07:31;30.85;;;25.95;;
21198;SDS011;10757;51.038;3.712;2022-07-09T07:09:57;36.42;;;26.63;;
21198;SDS011;10757;51.038;3.712;2022-07-09T07:12:23;32.55;;;27.58;;
21198;SDS011;10757;51.038;3.712;2022-07-09T07:14:48;33.55;;;27.75;;
21198;SDS011;10757;51.038;3.712;2022-07-09T07:17:15;34.85;;;27.42;;
21198;SDS011;10757;51.038;3.712;2022-07-09T07:19:42;32.90;;;27.50;;
21198;SDS011;10757;51.038;3.712;2022-07-09T07:22:08;34.58;;;27.45;;
21198;SDS011;10757;51.038;3.712;2022-07-09T07:24:34;33.80;;;27.65;;
21198;SDS011;10757;51.038;3.712;2022-07-09T07:26:59;33.10;;;27.85;;
21198;SDS011;10757;51.038;3.712;2022-07-09T07:29:27;38.42;;;29.23;;
21198;SDS011;10757;51.038;3.712;2022-07-09T07:31:53;35.67;;;28.10;;
21198;SDS011;10757;51.038;3.712;2022-07-09T07:34:18;35.85;;;29.35;;
21198;SDS011;10757;51.038;3.712;2022-07-09T07:36:47;32.45;;;28.55;;
21198;SDS011;10757;51.038;3.712;2022-07-09T07:39:14;36.15;;;27.75;;
21198;SDS011;10757;51.038;3.712;2022-07-09T07:41:39;31.73;;;26.77;;
21198;SDS011;10757;51.038;3.712;2022-07-09T07:44:05;33.13;;;28.63;;
21198;SDS011;10757;51.038;3.712;2022-07-09T07:46:31;36.35;;;28.67;;
21198;SDS011;10757;51.038;3.712;2022-07-09T07:48:56;32.85;;;29.13;;
21198;SDS011;10757;51.038;3.712;2022-07-09T07:51:22;36.35;;;27.75;;
21198;SDS011;10757;51.038;3.712;2022-07-09T07:53:49;41.17;;;29.95;;
21198;SDS011;10757;51.038;3.712;2022-07-09T07:56:16;37.50;;;28.42;;
21198;SDS011;10757;51.038;3.712;2022-07-09T07:58:42;31.58;;;26.30;;
21198;SDS011;10757;51.038;3.712;2022-07-09T08:01:08;36.63;;;27.67;;
21198;SDS011;10757;51.038;3.712;2022-07-09T08:03:34;31.45;;;25.85;;
21198;SDS011;10757;51.038;3.712;2022-07-09T08:06:00;31.23;;;24.85;;
21198;SDS011;10757;51.038;3.712;2022-07-09T08:08:26;34.78;;;25.63;;
21198;SDS011;10757;51.038;3.712;2022-07-09T08:10:52;30.25;;;25.23;;
21198;SDS011;10757;51.038;3.712;2022-07-09T08:13:18;35.05;;;26.35;;
21198;SDS011;10757;51.038;3.712;2022-07-09T08:15:44;33.33;;;24.98;;
21198;SDS011;10757;51.038;3.712;2022-07-09T08:18:10;28.15;;;23.33;;
21198;SDS011;10757;51.038;3.712;2022-07-09T08:20:39;31.17;;;26.05;;
21198;SDS011;10757;51.038;3.712;2022-07-09T08:23:05;32.38;;;24.75;;
21198;SDS011;10757;51.038;3.712;2022-07-09T08:25:31;30.85;;;24.40;;
21198;SDS011;10757;51.038;3.712;2022-07-09T08:27:57;29.05;;;23.40;;
21198;SDS011;10757;51.038;3.712;2022-07-09T08:30:23;27.55;;;22.65;;
21198;SDS011;10757;51.038;3.712;2022-07-09T08:32:49;28.90;;;23.17;;
21198;SDS011;10757;51.038;3.712;2022-07-09T08:35:15;25.85;;;21.13;;
21198;SDS011;10757;51.038;3.712;2022-07-09T08:37:41;25.05;;;20.58;;
21198;SDS011;10757;51.038;3.712;2022-07-09T08:40:07;23.63;;;17.05;;
21198;SDS011;10757;51.038;3.712;2022-07-09T08:42:33;21.63;;;16.50;;
21198;SDS011;10757;51.038;3.712;2022-07-09T08:44:59;21.60;;;17.05;;
21198;SDS011;10757;51.038;3.712;2022-07-09T08:47:25;20.42;;;16.73;;
21198;SDS011;10757;51.038;3.712;2022-07-09T08:49:54;26.77;;;14.95;;
21198;SDS011;10757;51.038;3.712;2022-07-09T08:52:21;19.17;;;11.43;;
21198;SDS011;10757;51.038;3.712;2022-07-09T08:54:52;18.73;;;13.30;;
21198;SDS011;10757;51.038;3.712;2022-07-09T08:57:19;15.57;;;11.32;;
21198;SDS011;10757;51.038;3.712;2022-07-09T08:59:44;18.38;;;8.18;;
21198;SDS011;10757;51.038;3.712;2022-07-09T09:02:13;9.35;;;5.75;;
21198;SDS011;10757;51.038;3.712;2022-07-09T09:04:43;5.72;;;2.80;;
21198;SDS011;10757;51.038;3.712;2022-07-09T09:09:48;6.15;;;2.17;;
21198;SDS011;10757;51.038;3.712;2022-07-09T09:12:14;6.70;;;2.53;;
21198;SDS011;10757;51.038;3.712;2022-07-09T09:14:47;5.78;;;2.20;;
21198;SDS011;10757;51.038;3.712;2022-07-09T09:17:26;5.18;;;1.92;;
21198;SDS011;10757;51.038;3.712;2022-07-09T09:19:52;9.38;;;2.40;;
21198;SDS011;10757;51.038;3.712;2022-07-09T09:22:23;6.53;;;1.60;;
21198;SDS011;10757;51.038;3.712;2022-07-09T09:25:04;7.28;;;1.80;;
21198;SDS011;10757;51.038;3.712;2022-07-09T09:27:40;7.18;;;1.70;;
21198;SDS011;10757;51.038;3.712;2022-07-09T09:30:14;10.80;;;2.28;;
21198;SDS011;10757;51.038;3.712;2022-07-09T09:32:40;6.32;;;2.35;;
21198;SDS011;10757;51.038;3.712;2022-07-09T09:35:11;6.03;;;1.77;;
21198;SDS011;10757;51.038;3.712;2022-07-09T09:37:42;5.63;;;1.80;;
21198;SDS011;10757;51.038;3.712;2022-07-09T09:40:17;4.75;;;1.48;;
21198;SDS011;10757;51.038;3.712;2022-07-09T09:42:43;3.75;;;1.60;;
21198;SDS011;10757;51.038;3.712;2022-07-09T09:45:14;5.28;;;1.80;;
21198;SDS011;10757;51.038;3.712;2022-07-09T09:47:47;8.50;;;1.80;;
21198;SDS011;10757;51.038;3.712;2022-07-09T09:50:19;5.75;;;2.17;;
21198;SDS011;10757;51.038;3.712;2022-07-09T09:53:02;5.00;;;2.20;;
21198;SDS011;10757;51.038;3.712;2022-07-09T09:55:38;6.72;;;1.98;;
21198;SDS011;10757;51.038;3.712;2022-07-09T09:58:07;5.32;;;1.80;;
21198;SDS011;10757;51.038;3.712;2022-07-09T10:00:35;4.97;;;1.95;;
21198;SDS011;10757;51.038;3.712;2022-07-09T10:03:02;3.78;;;1.50;;
21198;SDS011;10757;51.038;3.712;2022-07-09T10:05:31;6.80;;;1.67;;
21198;SDS011;10757;51.038;3.712;2022-07-09T10:07:57;9.30;;;1.38;;
21198;SDS011;10757;51.038;3.712;2022-07-09T10:10:26;3.28;;;1.17;;
21198;SDS011;10757;51.038;3.712;2022-07-09T10:12:55;7.35;;;1.48;;
21198;SDS011;10757;51.038;3.712;2022-07-09T10:15:22;5.15;;;1.50;;
21198;SDS011;10757;51.038;3.712;2022-07-09T10:20:54;6.25;;;1.33;;
21198;SDS011;10757;51.038;3.712;2022-07-09T10:23:27;3.22;;;1.13;;
21198;SDS011;10757;51.038;3.712;2022-07-09T10:25:53;4.45;;;1.75;;
21198;SDS011;10757;51.038;3.712;2022-07-09T10:28:21;3.90;;;1.60;;
21198;SDS011;10757;51.038;3.712;2022-07-09T10:30:51;6.65;;;1.50;;
21198;SDS011;10757;51.038;3.712;2022-07-09T10:33:22;6.85;;;1.52;;
21198;SDS011;10757;51.038;3.712;2022-07-09T10:35:54;4.43;;;1.20;;
21198;SDS011;10757;51.038;3.712;2022-07-09T10:38:20;4.13;;;1.42;;
21198;SDS011;10757;51.038;3.712;2022-07-09T10:41:00;3.13;;;0.88;;
21198;SDS011;10757;51.038;3.712;2022-07-09T10:43:40;4.57;;;1.20;;
21198;SDS011;10757;51.038;3.712;2022-07-09T10:46:10;2.78;;;1.20;;
21198;SDS011;10757;51.038;3.712;2022-07-09T10:48:37;4.35;;;1.15;;
21198;SDS011;10757;51.038;3.712;2022-07-09T10:51:03;6.43;;;2.10;;
21198;SDS011;10757;51.038;3.712;2022-07-09T10:53:29;4.57;;;1.48;;
21198;SDS011;10757;51.038;3.712;2022-07-09T10:55:55;5.45;;;0.90;;
21198;SDS011;10757;51.038;3.712;2022-07-09T10:58:21;3.72;;;1.25;;
21198;SDS011;10757;51.038;3.712;2022-07-09T11:01:01;3.17;;;1.00;;
21198;SDS011;10757;51.038;3.712;2022-07-09T11:03:30;2.47;;;1.08;;
21198;SDS011;10757;51.038;3.712;2022-07-09T11:05:59;5.53;;;1.00;;
21198;SDS011;10757;51.038;3.712;2022-07-09T11:08:30;6.25;;;1.17;;
21198;SDS011;10757;51.038;3.712;2022-07-09T11:10:57;7.45;;;0.95;;
21198;SDS011;10757;51.038;3.712;2022-07-09T11:13:24;1.98;;;0.95;;
21198;SDS011;10757;51.038;3.712;2022-07-09T11:15:59;3.15;;;1.02;;
21198;SDS011;10757;51.038;3.712;2022-07-09T11:18:26;4.43;;;1.30;;
21198;SDS011;10757;51.038;3.712;2022-07-09T11:20:54;3.05;;;0.95;;
21198;SDS011;10757;51.038;3.712;2022-07-09T11:23:19;5.95;;;1.10;;
21198;SDS011;10757;51.038;3.712;2022-07-09T11:25:45;4.50;;;1.15;;
21198;SDS011;10757;51.038;3.712;2022-07-09T11:28:18;4.63;;;1.40;;
21198;SDS011;10757;51.038;3.712;2022-07-09T11:33:32;4.55;;;1.45;;
21198;SDS011;10757;51.038;3.712;2022-07-09T11:36:18;9.38;;;3.42;;
21198;SDS011;10757;51.038;3.712;2022-07-09T11:38:47;8.75;;;2.63;;
21198;SDS011;10757;51.038;3.712;2022-07-09T11:41:14;4.13;;;1.48;;
21198;SDS011;10757;51.038;3.712;2022-07-09T11:43:45;4.25;;;1.20;;
21198;SDS011;10757;51.038;3.712;2022-07-09T11:46:15;3.92;;;1.10;;
21198;SDS011;10757;51.038;3.712;2022-07-09T11:48:51;2.97;;;0.98;;
21198;SDS011;10757;51.038;3.712;2022-07-09T11:51:30;4.53;;;1.10;;
21198;SDS011;10757;51.038;3.712;2022-07-09T11:53:57;3.90;;;1.10;;
21198;SDS011;10757;51.038;3.712;2022-07-09T11:56:24;3.40;;;1.20;;
21198;SDS011;10757;51.038;3.712;2022-07-09T11:58:51;3.78;;;1.35;;
21198;SDS011;10757;51.038;3.712;2022-07-09T12:01:17;6.15;;;1.70;;
21198;SDS011;10757;51.038;3.712;2022-07-09T12:03:47;3.05;;;1.55;;
21198;SDS011;10757;51.038;3.712;2022-07-09T12:06:14;12.95;;;2.15;;
21198;SDS011;10757;51.038;3.712;2022-07-09T12:08:40;4.47;;;1.45;;
21198;SDS011;10757;51.038;3.712;2022-07-09T12:11:05;5.35;;;1.40;;
21198;SDS011;10757;51.038;3.712;2022-07-09T12:13:32;6.00;;;1.50;;
21198;SDS011;10757;51.038;3.712;2022-07-09T12:15:57;3.80;;;1.23;;
21198;SDS011;10757;51.038;3.712;2022-07-09T12:18:24;6.22;;;1.50;;
21198;SDS011;10757;51.038;3.712;2022-07-09T12:23:21;6.90;;;1.55;;
21198;SDS011;10757;51.038;3.712;2022-07-09T12:25:47;3.42;;;1.27;;
21198;SDS011;10757;51.038;3.712;2022-07-09T12:28:12;6.78;;;1.70;;
21198;SDS011;10757;51.038;3.712;2022-07-09T12:30:39;7.93;;;1.08;;
21198;SDS011;10757;51.038;3.712;2022-07-09T12:33:04;3.42;;;1.10;;
21198;SDS011;10757;51.038;3.712;2022-07-09T12:35:30;2.55;;;0.93;;
21198;SDS011;10757;51.038;3.712;2022-07-09T12:37:57;3.03;;;1.10;;
21198;SDS011;10757;51.038;3.712;2022-07-09T12:40:24;3.95;;;1.10;;
21198;SDS011;10757;51.038;3.712;2022-07-09T12:42:49;3.60;;;1.27;;
21198;SDS011;10757;51.038;3.712;2022-07-09T12:45:15;3.00;;;0.90;;
21198;SDS011;10757;51.038;3.712;2022-07-09T12:47:41;6.57;;;1.10;;
21198;SDS011;10757;51.038;3.712;2022-07-09T12:50:07;6.13;;;1.30;;
21198;SDS011;10757;51.038;3.712;2022-07-09T12:52:34;4.47;;;1.88;;
21198;SDS011;10757;51.038;3.712;2022-07-09T12:55:03;7.85;;;1.58;;
21198;SDS011;10757;51.038;3.712;2022-07-09T12:57:30;4.55;;;1.05;;
21198;SDS011;10757;51.038;3.712;2022-07-09T12:59:56;11.50;;;1.23;;
21198;SDS011;10757;51.038;3.712;2022-07-09T13:02:22;4.78;;;1.10;;
21198;SDS011;10757;51.038;3.712;2022-07-09T13:04:50;3.33;;;1.10;;
21198;SDS011;10757;51.038;3.712;2022-07-09T13:07:16;10.95;;;1.23;;
21198;SDS011;10757;51.038;3.712;2022-07-09T13:09:42;6.22;;;2.22;;
21198;SDS011;10757;51.038;3.712;2022-07-09T13:12:08;10.05;;;4.78;;
21198;SDS011;10757;51.038;3.712;2022-07-09T13:14:34;9.70;;;2.97;;
21198;SDS011;10757;51.038;3.712;2022-07-09T13:17:00;6.88;;;2.05;;
21198;SDS011;10757;51.038;3.712;2022-07-09T13:19:26;6.05;;;1.20;;
21198;SDS011;10757;51.038;3.712;2022-07-09T13:21:51;8.20;;;1.20;;
21198;SDS011;10757;51.038;3.712;2022-07-09T13:24:17;5.18;;;1.05;;
21198;SDS011;10757;51.038;3.712;2022-07-09T13:26:43;5.35;;;1.33;;
21198;SDS011;10757;51.038;3.712;2022-07-09T13:29:14;4.35;;;1.23;;
21198;SDS011;10757;51.038;3.712;2022-07-09T13:31:40;3.75;;;1.35;;
21198;SDS011;10757;51.038;3.712;2022-07-09T13:34:05;5.45;;;1.23;;
21198;SDS011;10757;51.038;3.712;2022-07-09T13:36:34;9.35;;;1.52;;
21198;SDS011;10757;51.038;3.712;2022-07-09T13:39:00;3.17;;;1.00;;
21198;SDS011;10757;51.038;3.712;2022-07-09T13:41:25;3.50;;;1.20;;
21198;SDS011;10757;51.038;3.712;2022-07-09T13:43:51;3.95;;;1.10;;
21198;SDS011;10757;51.038;3.712;2022-07-09T13:46:17;5.15;;;1.20;;
21198;SDS011;10757;51.038;3.712;2022-07-09T13:48:43;4.55;;;1.20;;
21198;SDS011;10757;51.038;3.712;2022-07-09T13:51:09;6.03;;;1.75;;
21198;SDS011;10757;51.038;3.712;2022-07-09T13:53:35;6.88;;;1.50;;
21198;SDS011;10757;51.038;3.712;2022-07-09T13:56:03;4.05;;;1.08;;
21198;SDS011;10757;51.038;3.712;2022-07-09T13:58:30;5.22;;;1.25;;
21198;SDS011;10757;51.038;3.712;2022-07-09T14:00:56;6.18;;;1.10;;
21198;SDS011;10757;51.038;3.712;2022-07-09T14:03:24;6.22;;;1.42;;
21198;SDS011;10757;51.038;3.712;2022-07-09T14:05:51;4.72;;;1.23;;
21198;SDS011;10757;51.038;3.712;2022-07-09T14:08:16;9.48;;;1.55;;
21198;SDS011;10757;51.038;3.712;2022-07-09T14:10:42;4.45;;;1.27;;
21198;SDS011;10757;51.038;3.712;2022-07-09T14:13:08;5.88;;;1.30;;
21198;SDS011;10757;51.038;3.712;2022-07-09T14:15:34;3.50;;;1.08;;
21198;SDS011;10757;51.038;3.712;2022-07-09T14:18:02;8.30;;;1.48;;
21198;SDS011;10757;51.038;3.712;2022-07-09T14:20:28;6.30;;;1.30;;
21198;SDS011;10757;51.038;3.712;2022-07-09T14:22:53;8.43;;;1.50;;
21198;SDS011;10757;51.038;3.712;2022-07-09T14:25:20;7.43;;;1.70;;
21198;SDS011;10757;51.038;3.712;2022-07-09T14:27:46;11.70;;;2.10;;
21198;SDS011;10757;51.038;3.712;2022-07-09T14:30:12;10.90;;;1.77;;
21198;SDS011;10757;51.038;3.712;2022-07-09T14:32:38;8.23;;;2.25;;
21198;SDS011;10757;51.038;3.712;2022-07-09T14:35:04;10.10;;;1.60;;
21198;SDS011;10757;51.038;3.712;2022-07-09T14:37:30;6.97;;;1.55;;
21198;SDS011;10757;51.038;3.712;2022-07-09T14:39:56;8.60;;;1.85;;
21198;SDS011;10757;51.038;3.712;2022-07-09T14:42:21;8.35;;;1.52;;
21198;SDS011;10757;51.038;3.712;2022-07-09T14:44:47;8.70;;;1.60;;